sensor_id;sensor_type;location;lat;lon;timestamp;noise_LAeq;noise_LA_min;noise_LA_max;noise_LA01;noise_LA95
72805;Laerm;60920;48.748;19.142;2024-03-08T00:02:13;30.57;29.12;31.80;;
72805;Laerm;60920;48.748;19.142;2024-03-08T00:04:38;30.58;29.43;31.84;;
72805;Laerm;60920;48.748;19.142;2024-03-08T00:07:04;30.60;29.16;31.95;;
72805;Laerm;60920;48.748;19.142;2024-03-08T00:09:29;30.58;29.33;31.86;;
72805;Laerm;60920;48.748;19.142;2024-03-08T00:11:56;30.59;29.15;31.81;;
72805;Laerm;60920;48.748;19.142;2024-03-08T00:14:21;30.59;29.32;32.02;;
72805;Laerm;60920;48.748;19.142;2024-03-08T00:16:47;30.61;29.34;31.89;;
72805;Laerm;60920;48.748;19.142;2024-03-08T00:19:12;30.57;29.38;31.80;;
72805;Laerm;60920;48.748;19.142;2024-03-08T00:21:37;30.58;29.34;31.75;;
72805;Laerm;60920;48.748;19.142;2024-03-08T00:24:03;30.58;29.37;31.73;;
72805;Laerm;60920;48.748;19.142;2024-03-08T00:26:28;30.58;29.26;31.95;;
72805;Laerm;60920;48.748;19.142;2024-03-08T00:28:55;30.59;29.25;31.79;;
72805;Laerm;60920;48.748;19.142;2024-03-08T00:31:20;30.59;29.43;31.82;;
72805;Laerm;60920;48.748;19.142;2024-03-08T00:33:45;30.59;29.28;32.14;;
72805;Laerm;60920;48.748;19.142;2024-03-08T00:36:11;30.60;29.39;31.89;;
72805;Laerm;60920;48.748;19.142;2024-03-08T00:38:36;30.59;28.95;31.77;;
72805;Laerm;60920;48.748;19.142;2024-03-08T00:41:01;30.59;29.34;31.73;;
72805;Laerm;60920;48.748;19.142;2024-03-08T00:43:27;30.59;29.25;31.86;;
72805;Laerm;60920;48.748;19.142;2024-03-08T00:45:52;30.58;28.97;31.77;;
72805;Laerm;60920;48.748;19.142;2024-03-08T00:48:17;30.59;29.34;31.84;;
72805;Laerm;60920;48.748;19.142;2024-03-08T00:50:43;30.58;29.30;31.79;;
72805;Laerm;60920;48.748;19.142;2024-03-08T00:53:11;30.59;29.14;31.89;;
72805;Laerm;60920;48.748;19.142;2024-03-08T00:55:36;30.59;29.24;31.70;;
72805;Laerm;60920;48.748;19.142;2024-03-08T00:58:03;30.59;29.27;31.77;;
72805;Laerm;60920;48.748;19.142;2024-03-08T01:00:29;30.58;29.10;31.78;;
72805;Laerm;60920;48.748;19.142;2024-03-08T01:02:54;30.59;29.26;31.79;;
72805;Laerm;60920;48.748;19.142;2024-03-08T01:05:19;30.61;29.47;32.30;;
72805;Laerm;60920;48.748;19.142;2024-03-08T01:07:44;30.59;29.27;31.84;;
72805;Laerm;60920;48.748;19.142;2024-03-08T01:10:11;30.59;29.23;31.96;;
72805;Laerm;60920;48.748;19.142;2024-03-08T01:12:36;30.61;29.24;31.87;;
72805;Laerm;60920;48.748;19.142;2024-03-08T01:15:02;30.60;29.10;31.92;;
72805;Laerm;60920;48.748;19.142;2024-03-08T01:17:27;30.59;29.24;31.72;;
72805;Laerm;60920;48.748;19.142;2024-03-08T01:19:52;30.61;29.33;31.88;;
72805;Laerm;60920;48.748;19.142;2024-03-08T01:22:18;30.59;29.31;31.84;;
72805;Laerm;60920;48.748;19.142;2024-03-08T01:24:44;30.58;29.22;31.86;;
72805;Laerm;60920;48.748;19.142;2024-03-08T01:27:09;30.58;29.11;31.87;;
72805;Laerm;60920;48.748;19.142;2024-03-08T01:29:34;30.61;28.82;32.07;;
72805;Laerm;60920;48.748;19.142;2024-03-08T01:31:59;30.60;29.21;31.98;;
72805;Laerm;60920;48.748;19.142;2024-03-08T01:34:26;30.58;28.91;31.73;;
72805;Laerm;60920;48.748;19.142;2024-03-08T01:36:54;30.59;29.09;31.77;;
72805;Laerm;60920;48.748;19.142;2024-03-08T01:39:21;30.59;29.35;31.72;;
72805;Laerm;60920;48.748;19.142;2024-03-08T01:41:47;30.60;29.26;31.74;;
72805;Laerm;60920;48.748;19.142;2024-03-08T01:44:12;30.59;29.31;31.80;;
72805;Laerm;60920;48.748;19.142;2024-03-08T01:46:42;30.61;29.46;31.87;;
72805;Laerm;60920;48.748;19.142;2024-03-08T01:49:09;30.59;29.01;31.86;;
72805;Laerm;60920;48.748;19.142;2024-03-08T01:51:35;30.58;29.07;31.86;;
72805;Laerm;60920;48.748;19.142;2024-03-08T01:54:00;30.60;29.40;31.89;;
72805;Laerm;60920;48.748;19.142;2024-03-08T01:56:27;30.60;29.14;31.79;;
72805;Laerm;60920;48.748;19.142;2024-03-08T01:58:53;30.58;29.24;32.00;;
72805;Laerm;60920;48.748;19.142;2024-03-08T02:01:19;30.61;29.49;32.02;;
72805;Laerm;60920;48.748;19.142;2024-03-08T02:03:44;30.62;29.42;31.72;;
72805;Laerm;60920;48.748;19.142;2024-03-08T02:06:13;30.59;29.16;31.96;;
72805;Laerm;60920;48.748;19.142;2024-03-08T02:08:42;30.59;29.26;31.90;;
72805;Laerm;60920;48.748;19.142;2024-03-08T02:11:09;30.63;29.30;31.84;;
72805;Laerm;60920;48.748;19.142;2024-03-08T02:13:34;30.59;29.26;31.83;;
72805;Laerm;60920;48.748;19.142;2024-03-08T02:16:00;30.61;29.24;31.98;;
72805;Laerm;60920;48.748;19.142;2024-03-08T02:18:26;30.59;29.39;31.83;;
72805;Laerm;60920;48.748;19.142;2024-03-08T02:20:58;30.59;29.02;31.75;;
72805;Laerm;60920;48.748;19.142;2024-03-08T02:23:24;30.58;29.37;31.82;;
72805;Laerm;60920;48.748;19.142;2024-03-08T02:25:50;30.58;29.08;31.80;;
72805;Laerm;60920;48.748;19.142;2024-03-08T02:28:15;30.59;29.30;31.68;;
72805;Laerm;60920;48.748;19.142;2024-03-08T02:30:41;30.57;29.37;31.78;;
72805;Laerm;60920;48.748;19.142;2024-03-08T02:33:06;30.59;29.22;31.73;;
72805;Laerm;60920;48.748;19.142;2024-03-08T02:35:32;30.59;29.42;31.81;;
72805;Laerm;60920;48.748;19.142;2024-03-08T02:37:58;30.58;29.27;31.91;;
72805;Laerm;60920;48.748;19.142;2024-03-08T02:40:23;30.59;29.13;31.74;;
72805;Laerm;60920;48.748;19.142;2024-03-08T02:42:48;30.58;29.22;32.02;;
72805;Laerm;60920;48.748;19.142;2024-03-08T02:45:14;30.58;29.10;31.96;;
72805;Laerm;60920;48.748;19.142;2024-03-08T02:47:39;30.59;29.36;31.78;;
72805;Laerm;60920;48.748;19.142;2024-03-08T02:50:05;30.60;29.15;31.96;;
72805;Laerm;60920;48.748;19.142;2024-03-08T02:52:33;30.60;29.39;31.69;;
72805;Laerm;60920;48.748;19.142;2024-03-08T02:54:58;30.62;29.23;31.74;;
72805;Laerm;60920;48.748;19.142;2024-03-08T02:57:24;30.59;29.38;31.72;;
72805;Laerm;60920;48.748;19.142;2024-03-08T02:59:49;30.59;29.28;31.84;;
72805;Laerm;60920;48.748;19.142;2024-03-08T03:02:15;30.58;29.42;31.79;;
72805;Laerm;60920;48.748;19.142;2024-03-08T03:04:41;30.60;29.35;32.07;;
72805;Laerm;60920;48.748;19.142;2024-03-08T03:07:06;30.60;29.32;31.77;;
72805;Laerm;60920;48.748;19.142;2024-03-08T03:09:32;30.65;29.29;32.17;;
72805;Laerm;60920;48.748;19.142;2024-03-08T03:11:58;30.59;29.28;31.78;;
72805;Laerm;60920;48.748;19.142;2024-03-08T03:14:23;30.59;29.31;31.79;;
72805;Laerm;60920;48.748;19.142;2024-03-08T03:16:49;30.60;29.07;31.86;;
72805;Laerm;60920;48.748;19.142;2024-03-08T03:19:15;30.60;29.25;31.60;;
72805;Laerm;60920;48.748;19.142;2024-03-08T03:21:40;30.59;29.24;31.79;;
72805;Laerm;60920;48.748;19.142;2024-03-08T03:24:09;30.59;29.19;31.75;;
72805;Laerm;60920;48.748;19.142;2024-03-08T03:26:39;30.61;29.06;31.95;;
72805;Laerm;60920;48.748;19.142;2024-03-08T03:29:06;30.63;29.39;31.74;;
72805;Laerm;60920;48.748;19.142;2024-03-08T03:31:31;30.60;29.22;31.94;;
72805;Laerm;60920;48.748;19.142;2024-03-08T03:33:57;30.62;29.25;31.98;;
72805;Laerm;60920;48.748;19.142;2024-03-08T03:36:27;30.62;29.38;31.82;;
72805;Laerm;60920;48.748;19.142;2024-03-08T03:38:53;30.60;29.32;31.94;;
72805;Laerm;60920;48.748;19.142;2024-03-08T03:41:29;30.62;29.24;32.09;;
72805;Laerm;60920;48.748;19.142;2024-03-08T03:43:54;30.64;29.35;31.86;;
72805;Laerm;60920;48.748;19.142;2024-03-08T03:46:20;30.65;29.31;32.00;;
72805;Laerm;60920;48.748;19.142;2024-03-08T03:48:45;30.63;29.33;31.71;;
72805;Laerm;60920;48.748;19.142;2024-03-08T03:51:11;30.63;29.41;31.92;;
72805;Laerm;60920;48.748;19.142;2024-03-08T03:53:37;30.60;29.38;31.72;;
72805;Laerm;60920;48.748;19.142;2024-03-08T03:56:02;30.60;29.30;31.81;;
72805;Laerm;60920;48.748;19.142;2024-03-08T03:58:27;30.62;29.30;31.83;;
72805;Laerm;60920;48.748;19.142;2024-03-08T04:00:53;30.61;29.15;32.00;;
72805;Laerm;60920;48.748;19.142;2024-03-08T04:03:18;30.63;29.48;31.82;;
72805;Laerm;60920;48.748;19.142;2024-03-08T04:05:43;30.65;29.33;31.99;;
72805;Laerm;60920;48.748;19.142;2024-03-08T04:08:09;30.63;29.35;31.81;;
72805;Laerm;60920;48.748;19.142;2024-03-08T04:10:35;30.63;29.43;31.83;;
72805;Laerm;60920;48.748;19.142;2024-03-08T04:13:00;30.63;29.25;31.76;;
72805;Laerm;60920;48.748;19.142;2024-03-08T04:15:25;30.99;29.30;42.24;;
72805;Laerm;60920;48.748;19.142;2024-03-08T04:17:51;30.64;29.35;31.78;;
72805;Laerm;60920;48.748;19.142;2024-03-08T04:20:16;30.64;29.30;31.78;;
72805;Laerm;60920;48.748;19.142;2024-03-08T04:22:42;30.65;29.01;31.92;;
72805;Laerm;60920;48.748;19.142;2024-03-08T04:25:09;30.65;29.46;31.85;;
72805;Laerm;60920;48.748;19.142;2024-03-08T04:27:35;30.65;29.09;32.07;;
72805;Laerm;60920;48.748;19.142;2024-03-08T04:30:01;30.65;29.36;32.15;;
72805;Laerm;60920;48.748;19.142;2024-03-08T04:32:26;30.72;29.23;32.13;;
72805;Laerm;60920;48.748;19.142;2024-03-08T04:34:53;30.68;29.44;31.86;;
72805;Laerm;60920;48.748;19.142;2024-03-08T04:37:18;30.66;29.30;31.90;;
72805;Laerm;60920;48.748;19.142;2024-03-08T04:39:47;30.66;29.46;31.96;;
72805;Laerm;60920;48.748;19.142;2024-03-08T04:42:12;30.66;29.31;31.84;;
72805;Laerm;60920;48.748;19.142;2024-03-08T04:44:38;30.66;29.28;31.90;;
72805;Laerm;60920;48.748;19.142;2024-03-08T04:47:04;30.64;29.39;31.84;;
72805;Laerm;60920;48.748;19.142;2024-03-08T04:49:31;30.67;29.25;31.93;;
72805;Laerm;60920;48.748;19.142;2024-03-08T04:51:56;30.64;29.32;31.89;;
72805;Laerm;60920;48.748;19.142;2024-03-08T04:54:21;30.64;29.09;32.10;;
72805;Laerm;60920;48.748;19.142;2024-03-08T04:56:47;30.71;29.56;32.68;;
72805;Laerm;60920;48.748;19.142;2024-03-08T04:59:12;30.69;29.19;32.82;;
72805;Laerm;60920;48.748;19.142;2024-03-08T05:01:38;30.68;29.29;32.31;;
72805;Laerm;60920;48.748;19.142;2024-03-08T05:04:04;30.65;29.22;32.05;;
72805;Laerm;60920;48.748;19.142;2024-03-08T05:06:29;30.69;29.30;32.12;;
72805;Laerm;60920;48.748;19.142;2024-03-08T05:08:55;30.66;29.25;31.76;;
72805;Laerm;60920;48.748;19.142;2024-03-08T05:11:20;30.67;29.51;31.84;;
72805;Laerm;60920;48.748;19.142;2024-03-08T05:13:46;30.69;29.45;32.32;;
72805;Laerm;60920;48.748;19.142;2024-03-08T05:16:11;30.67;29.25;32.04;;
72805;Laerm;60920;48.748;19.142;2024-03-08T05:18:37;30.70;29.46;36.26;;
72805;Laerm;60920;48.748;19.142;2024-03-08T05:21:02;30.70;29.55;32.13;;
72805;Laerm;60920;48.748;19.142;2024-03-08T05:23:30;30.70;29.53;32.23;;
72805;Laerm;60920;48.748;19.142;2024-03-08T05:25:56;30.77;29.36;34.15;;
72805;Laerm;60920;48.748;19.142;2024-03-08T05:28:21;30.67;29.40;31.79;;
72805;Laerm;60920;48.748;19.142;2024-03-08T05:30:46;30.70;29.24;31.90;;
72805;Laerm;60920;48.748;19.142;2024-03-08T05:33:12;30.74;29.28;32.01;;
72805;Laerm;60920;48.748;19.142;2024-03-08T05:35:39;30.76;29.35;32.73;;
72805;Laerm;60920;48.748;19.142;2024-03-08T05:38:05;30.77;29.15;32.84;;
72805;Laerm;60920;48.748;19.142;2024-03-08T05:40:32;30.75;29.12;31.88;;
72805;Laerm;60920;48.748;19.142;2024-03-08T05:42:57;30.73;29.47;32.20;;
72805;Laerm;60920;48.748;19.142;2024-03-08T05:45:23;30.69;29.44;32.10;;
72805;Laerm;60920;48.748;19.142;2024-03-08T05:47:50;30.71;29.28;32.09;;
72805;Laerm;60920;48.748;19.142;2024-03-08T05:50:16;30.73;29.50;31.97;;
72805;Laerm;60920;48.748;19.142;2024-03-08T05:52:42;30.72;29.23;33.91;;
72805;Laerm;60920;48.748;19.142;2024-03-08T05:55:08;30.75;29.31;32.20;;
72805;Laerm;60920;48.748;19.142;2024-03-08T05:57:34;30.72;29.47;32.26;;
72805;Laerm;60920;48.748;19.142;2024-03-08T06:00:03;30.73;29.58;31.96;;
72805;Laerm;60920;48.748;19.142;2024-03-08T06:02:28;30.72;29.45;32.11;;
72805;Laerm;60920;48.748;19.142;2024-03-08T06:04:54;30.71;29.17;31.94;;
72805;Laerm;60920;48.748;19.142;2024-03-08T06:07:20;30.73;29.38;32.03;;
72805;Laerm;60920;48.748;19.142;2024-03-08T06:09:45;30.74;29.47;32.29;;
72805;Laerm;60920;48.748;19.142;2024-03-08T06:12:11;30.75;29.10;32.04;;
72805;Laerm;60920;48.748;19.142;2024-03-08T06:14:37;30.71;29.57;31.95;;
72805;Laerm;60920;48.748;19.142;2024-03-08T06:17:03;30.75;29.50;32.20;;
72805;Laerm;60920;48.748;19.142;2024-03-08T06:19:29;30.76;29.46;31.95;;
72805;Laerm;60920;48.748;19.142;2024-03-08T06:21:55;30.78;29.42;32.19;;
72805;Laerm;60920;48.748;19.142;2024-03-08T06:24:20;30.75;29.31;32.19;;
72805;Laerm;60920;48.748;19.142;2024-03-08T06:26:45;30.79;29.57;32.08;;
72805;Laerm;60920;48.748;19.142;2024-03-08T06:29:10;30.77;29.33;32.21;;
72805;Laerm;60920;48.748;19.142;2024-03-08T06:31:36;30.75;29.35;32.34;;
72805;Laerm;60920;48.748;19.142;2024-03-08T06:34:04;30.78;29.37;32.24;;
72805;Laerm;60920;48.748;19.142;2024-03-08T06:36:32;30.76;29.25;32.31;;
72805;Laerm;60920;48.748;19.142;2024-03-08T06:38:57;30.80;29.34;32.02;;
72805;Laerm;60920;48.748;19.142;2024-03-08T06:41:23;30.80;29.48;32.20;;
72805;Laerm;60920;48.748;19.142;2024-03-08T06:43:48;30.78;29.47;36.85;;
72805;Laerm;60920;48.748;19.142;2024-03-08T06:46:16;30.75;29.34;32.31;;
72805;Laerm;60920;48.748;19.142;2024-03-08T06:48:42;30.80;29.49;34.07;;
72805;Laerm;60920;48.748;19.142;2024-03-08T06:51:07;30.77;29.41;32.10;;
72805;Laerm;60920;48.748;19.142;2024-03-08T06:53:33;30.77;29.22;32.10;;
72805;Laerm;60920;48.748;19.142;2024-03-08T06:56:00;30.73;29.40;32.44;;
72805;Laerm;60920;48.748;19.142;2024-03-08T06:58:25;30.69;29.24;31.98;;
72805;Laerm;60920;48.748;19.142;2024-03-08T07:00:51;30.78;29.45;33.62;;
72805;Laerm;60920;48.748;19.142;2024-03-08T07:03:23;30.75;29.49;32.11;;
72805;Laerm;60920;48.748;19.142;2024-03-08T07:05:48;30.74;29.32;32.93;;
72805;Laerm;60920;48.748;19.142;2024-03-08T07:08:14;30.70;29.45;32.02;;
72805;Laerm;60920;48.748;19.142;2024-03-08T07:10:40;30.76;29.34;32.73;;
72805;Laerm;60920;48.748;19.142;2024-03-08T07:13:10;30.74;29.45;31.92;;
72805;Laerm;60920;48.748;19.142;2024-03-08T07:15:35;30.69;29.04;32.86;;
72805;Laerm;60920;48.748;19.142;2024-03-08T07:18:01;30.72;29.36;32.11;;
72805;Laerm;60920;48.748;19.142;2024-03-08T07:20:26;30.71;29.52;31.95;;
72805;Laerm;60920;48.748;19.142;2024-03-08T07:22:53;30.79;29.35;32.54;;
72805;Laerm;60920;48.748;19.142;2024-03-08T07:25:19;30.67;29.33;31.98;;
72805;Laerm;60920;48.748;19.142;2024-03-08T07:27:48;30.66;29.41;32.00;;
72805;Laerm;60920;48.748;19.142;2024-03-08T07:30:13;30.66;29.36;31.91;;
72805;Laerm;60920;48.748;19.142;2024-03-08T07:32:58;30.66;29.29;32.04;;
72805;Laerm;60920;48.748;19.142;2024-03-08T07:35:24;30.67;29.33;31.91;;
72805;Laerm;60920;48.748;19.142;2024-03-08T07:37:51;30.66;29.38;32.19;;
72805;Laerm;60920;48.748;19.142;2024-03-08T07:40:19;30.70;29.39;32.61;;
72805;Laerm;60920;48.748;19.142;2024-03-08T07:42:44;30.61;29.25;31.89;;
72805;Laerm;60920;48.748;19.142;2024-03-08T07:45:09;30.63;29.25;33.22;;
72805;Laerm;60920;48.748;19.142;2024-03-08T07:47:35;30.65;29.25;32.47;;
72805;Laerm;60920;48.748;19.142;2024-03-08T07:50:01;30.64;29.21;32.88;;
72805;Laerm;60920;48.748;19.142;2024-03-08T07:52:27;30.67;29.20;33.04;;
72805;Laerm;60920;48.748;19.142;2024-03-08T07:54:52;30.76;29.27;39.09;;
72805;Laerm;60920;48.748;19.142;2024-03-08T07:57:18;30.61;29.38;32.41;;
72805;Laerm;60920;48.748;19.142;2024-03-08T07:59:44;30.68;29.17;32.19;;
72805;Laerm;60920;48.748;19.142;2024-03-08T08:02:09;30.65;29.24;32.01;;
72805;Laerm;60920;48.748;19.142;2024-03-08T08:04:35;30.62;29.13;32.28;;
72805;Laerm;60920;48.748;19.142;2024-03-08T08:07:03;30.63;29.18;32.42;;
72805;Laerm;60920;48.748;19.142;2024-03-08T08:09:28;30.58;29.14;31.91;;
72805;Laerm;60920;48.748;19.142;2024-03-08T08:11:54;30.63;29.28;31.82;;
72805;Laerm;60920;48.748;19.142;2024-03-08T08:14:20;30.65;29.37;31.91;;
72805;Laerm;60920;48.748;19.142;2024-03-08T08:16:46;30.72;29.20;35.54;;
72805;Laerm;60920;48.748;19.142;2024-03-08T08:19:13;30.66;29.22;32.94;;
72805;Laerm;60920;48.748;19.142;2024-03-08T08:21:38;30.65;29.26;31.86;;
72805;Laerm;60920;48.748;19.142;2024-03-08T08:24:04;30.62;29.32;31.79;;
72805;Laerm;60920;48.748;19.142;2024-03-08T08:26:29;30.68;29.20;32.14;;
72805;Laerm;60920;48.748;19.142;2024-03-08T08:28:54;30.73;29.44;32.29;;
72805;Laerm;60920;48.748;19.142;2024-03-08T08:31:20;30.71;29.33;32.97;;
72805;Laerm;60920;48.748;19.142;2024-03-08T08:33:45;30.70;29.21;32.18;;
72805;Laerm;60920;48.748;19.142;2024-03-08T08:36:10;30.68;29.33;32.01;;
72805;Laerm;60920;48.748;19.142;2024-03-08T08:38:35;30.71;29.36;32.04;;
72805;Laerm;60920;48.748;19.142;2024-03-08T08:41:01;30.75;29.60;32.14;;
72805;Laerm;60920;48.748;19.142;2024-03-08T08:43:27;30.71;29.44;31.97;;
72805;Laerm;60920;48.748;19.142;2024-03-08T08:45:53;30.77;29.25;32.12;;
72805;Laerm;60920;48.748;19.142;2024-03-08T08:48:20;30.76;29.38;32.60;;
72805;Laerm;60920;48.748;19.142;2024-03-08T08:50:45;30.83;29.51;32.98;;
72805;Laerm;60920;48.748;19.142;2024-03-08T08:53:12;30.75;29.30;31.95;;
72805;Laerm;60920;48.748;19.142;2024-03-08T08:55:39;30.70;29.35;32.31;;
72805;Laerm;60920;48.748;19.142;2024-03-08T08:58:05;30.76;29.31;32.71;;
72805;Laerm;60920;48.748;19.142;2024-03-08T09:00:32;30.73;29.50;32.15;;
72805;Laerm;60920;48.748;19.142;2024-03-08T09:02:57;30.73;29.34;32.01;;
72805;Laerm;60920;48.748;19.142;2024-03-08T09:05:23;30.73;29.33;31.97;;
72805;Laerm;60920;48.748;19.142;2024-03-08T09:07:49;30.67;29.36;31.98;;
72805;Laerm;60920;48.748;19.142;2024-03-08T09:10:15;30.69;29.42;32.02;;
72805;Laerm;60920;48.748;19.142;2024-03-08T09:12:40;30.69;29.30;32.17;;
72805;Laerm;60920;48.748;19.142;2024-03-08T09:15:06;30.60;29.15;33.04;;
72805;Laerm;60920;48.748;19.142;2024-03-08T09:17:36;30.66;29.18;34.14;;
72805;Laerm;60920;48.748;19.142;2024-03-08T09:20:04;30.58;29.27;32.06;;
72805;Laerm;60920;48.748;19.142;2024-03-08T09:22:30;30.59;29.29;31.95;;
72805;Laerm;60920;48.748;19.142;2024-03-08T09:24:56;30.62;29.21;31.99;;
72805;Laerm;60920;48.748;19.142;2024-03-08T09:27:22;30.54;29.02;32.06;;
72805;Laerm;60920;48.748;19.142;2024-03-08T09:29:47;30.52;29.29;32.71;;
72805;Laerm;60920;48.748;19.142;2024-03-08T09:32:13;30.42;29.20;31.84;;
72805;Laerm;60920;48.748;19.142;2024-03-08T09:34:38;30.43;28.97;31.97;;
72805;Laerm;60920;48.748;19.142;2024-03-08T09:37:03;30.43;29.12;32.18;;
72805;Laerm;60920;48.748;19.142;2024-03-08T09:39:29;30.37;28.98;31.65;;
72805;Laerm;60920;48.748;19.142;2024-03-08T09:41:55;30.47;29.13;31.78;;
72805;Laerm;60920;48.748;19.142;2024-03-08T09:44:20;30.36;29.09;31.80;;
72805;Laerm;60920;48.748;19.142;2024-03-08T09:46:46;30.41;29.08;32.26;;
72805;Laerm;60920;48.748;19.142;2024-03-08T09:49:16;30.33;29.09;31.63;;
72805;Laerm;60920;48.748;19.142;2024-03-08T09:51:41;30.39;28.85;31.74;;
72805;Laerm;60920;48.748;19.142;2024-03-08T09:54:07;30.36;28.40;31.70;;
72805;Laerm;60920;48.748;19.142;2024-03-08T09:56:33;30.26;29.06;31.83;;
72805;Laerm;60920;48.748;19.142;2024-03-08T09:59:00;30.18;28.91;32.16;;
72805;Laerm;60920;48.748;19.142;2024-03-08T10:01:41;30.22;28.77;31.70;;
72805;Laerm;60920;48.748;19.142;2024-03-08T10:04:06;30.11;28.49;31.45;;
72805;Laerm;60920;48.748;19.142;2024-03-08T10:06:31;30.17;28.96;32.08;;
72805;Laerm;60920;48.748;19.142;2024-03-08T10:08:57;30.24;28.79;31.84;;
72805;Laerm;60920;48.748;19.142;2024-03-08T10:11:22;30.30;28.78;32.10;;
72805;Laerm;60920;48.748;19.142;2024-03-08T10:13:48;30.23;28.72;32.21;;
72805;Laerm;60920;48.748;19.142;2024-03-08T10:16:13;30.15;28.65;33.67;;
72805;Laerm;60920;48.748;19.142;2024-03-08T10:18:39;30.01;28.70;33.87;;
72805;Laerm;60920;48.748;19.142;2024-03-08T10:21:07;30.02;28.78;32.05;;
72805;Laerm;60920;48.748;19.142;2024-03-08T10:23:33;30.02;28.48;31.87;;
72805;Laerm;60920;48.748;19.142;2024-03-08T10:26:15;29.90;28.64;32.80;;
72805;Laerm;60920;48.748;19.142;2024-03-08T10:28:41;29.93;28.58;31.58;;
72805;Laerm;60920;48.748;19.142;2024-03-08T10:31:06;29.89;28.55;31.31;;
72805;Laerm;60920;48.748;19.142;2024-03-08T10:33:32;29.95;28.19;31.33;;
72805;Laerm;60920;48.748;19.142;2024-03-08T10:35:58;29.94;28.37;31.26;;
72805;Laerm;60920;48.748;19.142;2024-03-08T10:38:23;29.94;28.46;31.30;;
72805;Laerm;60920;48.748;19.142;2024-03-08T10:40:49;29.95;28.53;31.38;;
72805;Laerm;60920;48.748;19.142;2024-03-08T10:43:24;30.02;28.50;33.54;;
72805;Laerm;60920;48.748;19.142;2024-03-08T10:45:52;29.97;28.63;32.98;;
72805;Laerm;60920;48.748;19.142;2024-03-08T10:48:32;30.11;28.78;31.81;;
72805;Laerm;60920;48.748;19.142;2024-03-08T10:51:01;29.99;28.44;33.45;;
72805;Laerm;60920;48.748;19.142;2024-03-08T10:53:27;29.98;28.47;31.43;;
72805;Laerm;60920;48.748;19.142;2024-03-08T10:55:54;30.06;28.61;35.22;;
72805;Laerm;60920;48.748;19.142;2024-03-08T10:58:21;29.92;28.63;31.44;;
72805;Laerm;60920;48.748;19.142;2024-03-08T11:00:47;29.99;28.71;32.07;;
72805;Laerm;60920;48.748;19.142;2024-03-08T11:05:59;29.94;28.51;31.38;;
72805;Laerm;60920;48.748;19.142;2024-03-08T11:08:26;29.92;28.44;32.14;;
72805;Laerm;60920;48.748;19.142;2024-03-08T11:10:51;29.90;28.47;31.33;;
72805;Laerm;60920;48.748;19.142;2024-03-08T11:19:33;29.91;28.28;31.25;;
72805;Laerm;60920;48.748;19.142;2024-03-08T11:21:39;29.94;28.39;31.51;;
72805;Laerm;60920;48.748;19.142;2024-03-08T11:24:10;29.89;28.60;31.70;;
72805;Laerm;60920;48.748;19.142;2024-03-08T11:26:39;29.88;28.62;31.12;;
72805;Laerm;60920;48.748;19.142;2024-03-08T11:31:49;30.20;28.21;39.32;;
72805;Laerm;60920;48.748;19.142;2024-03-08T11:34:15;29.96;28.23;31.31;;
72805;Laerm;60920;48.748;19.142;2024-03-08T11:36:41;30.08;28.58;34.52;;
72805;Laerm;60920;48.748;19.142;2024-03-08T11:39:07;30.05;28.52;32.28;;
72805;Laerm;60920;48.748;19.142;2024-03-08T11:41:39;29.98;28.52;31.29;;
72805;Laerm;60920;48.748;19.142;2024-03-08T11:44:06;30.06;28.66;31.57;;
72805;Laerm;60920;48.748;19.142;2024-03-08T11:46:32;30.09;28.43;31.49;;
72805;Laerm;60920;48.748;19.142;2024-03-08T11:48:57;30.05;28.54;33.37;;
72805;Laerm;60920;48.748;19.142;2024-03-08T11:51:23;30.04;28.67;31.44;;
72805;Laerm;60920;48.748;19.142;2024-03-08T11:53:51;30.01;28.65;31.32;;
72805;Laerm;60920;48.748;19.142;2024-03-08T11:56:17;29.96;28.64;31.62;;
72805;Laerm;60920;48.748;19.142;2024-03-08T11:58:52;30.03;28.61;32.55;;
72805;Laerm;60920;48.748;19.142;2024-03-08T12:01:18;29.98;28.66;31.35;;
72805;Laerm;60920;48.748;19.142;2024-03-08T12:03:43;30.01;28.40;33.97;;
72805;Laerm;60920;48.748;19.142;2024-03-08T12:06:09;29.99;28.71;31.44;;
72805;Laerm;60920;48.748;19.142;2024-03-08T12:08:37;29.98;28.58;31.18;;
72805;Laerm;60920;48.748;19.142;2024-03-08T12:11:06;29.99;28.60;33.54;;
72805;Laerm;60920;48.748;19.142;2024-03-08T12:13:32;30.14;28.63;34.46;;
72805;Laerm;60920;48.748;19.142;2024-03-08T12:15:59;29.97;28.65;31.29;;
72805;Laerm;60920;48.748;19.142;2024-03-08T12:18:25;29.92;28.46;31.40;;
72805;Laerm;60920;48.748;19.142;2024-03-08T12:20:51;29.94;28.67;31.44;;
72805;Laerm;60920;48.748;19.142;2024-03-08T12:23:17;29.97;28.47;31.28;;
72805;Laerm;60920;48.748;19.142;2024-03-08T12:25:42;30.02;28.48;31.51;;
72805;Laerm;60920;48.748;19.142;2024-03-08T12:28:08;30.02;28.56;31.17;;
72805;Laerm;60920;48.748;19.142;2024-03-08T12:30:51;30.06;28.55;32.04;;
72805;Laerm;60920;48.748;19.142;2024-03-08T12:33:19;30.13;28.75;33.51;;
72805;Laerm;60920;48.748;19.142;2024-03-08T12:35:54;30.16;28.62;31.92;;
72805;Laerm;60920;48.748;19.142;2024-03-08T12:38:20;30.17;28.71;35.71;;
72805;Laerm;60920;48.748;19.142;2024-03-08T12:40:49;30.05;28.80;32.05;;
72805;Laerm;60920;48.748;19.142;2024-03-08T12:43:16;30.02;28.64;31.40;;
72805;Laerm;60920;48.748;19.142;2024-03-08T12:45:41;30.13;28.61;31.47;;
72805;Laerm;60920;48.748;19.142;2024-03-08T12:48:12;30.14;28.74;31.61;;
72805;Laerm;60920;48.748;19.142;2024-03-08T12:50:41;30.21;28.79;31.85;;
72805;Laerm;60920;48.748;19.142;2024-03-08T12:53:10;30.12;28.81;31.54;;
72805;Laerm;60920;48.748;19.142;2024-03-08T12:55:35;30.16;28.70;32.38;;
72805;Laerm;60920;48.748;19.142;2024-03-08T12:58:00;30.13;28.57;31.96;;
72805;Laerm;60920;48.748;19.142;2024-03-08T13:00:26;30.17;28.76;31.48;;
72805;Laerm;60920;48.748;19.142;2024-03-08T13:02:53;30.12;28.85;31.45;;
72805;Laerm;60920;48.748;19.142;2024-03-08T13:05:18;30.20;28.79;31.95;;
72805;Laerm;60920;48.748;19.142;2024-03-08T13:07:45;30.19;28.49;32.58;;
72805;Laerm;60920;48.748;19.142;2024-03-08T13:10:13;30.17;28.89;31.48;;
72805;Laerm;60920;48.748;19.142;2024-03-08T13:12:42;30.14;28.65;31.51;;
72805;Laerm;60920;48.748;19.142;2024-03-08T13:15:07;30.26;29.03;31.92;;
72805;Laerm;60920;48.748;19.142;2024-03-08T13:17:34;30.20;28.92;31.79;;
72805;Laerm;60920;48.748;19.142;2024-03-08T13:19:59;30.17;28.84;34.15;;
72805;Laerm;60920;48.748;19.142;2024-03-08T13:22:24;30.19;28.85;32.69;;
72805;Laerm;60920;48.748;19.142;2024-03-08T13:24:50;30.27;28.76;31.77;;
72805;Laerm;60920;48.748;19.142;2024-03-08T13:27:17;30.28;28.81;31.66;;
72805;Laerm;60920;48.748;19.142;2024-03-08T13:29:46;30.19;28.83;31.42;;
72805;Laerm;60920;48.748;19.142;2024-03-08T13:32:12;30.18;28.90;31.33;;
72805;Laerm;60920;48.748;19.142;2024-03-08T13:34:40;30.20;28.54;31.59;;
72805;Laerm;60920;48.748;19.142;2024-03-08T13:37:06;30.20;28.72;31.40;;
72805;Laerm;60920;48.748;19.142;2024-03-08T13:39:31;30.25;28.80;31.87;;